Time;durP1;ratioP1;P1;durP2;ratioP2;P2;SDS_P1;SDS_P2;PMS_P1;PMS_P2;Temp;Humidity;BMP_temperature;BMP_pressure;BME280_temperature;BME280_humidity;BME280_pressure;Samples;Min_cycle;Max_cycle;Signal;HPM_P1;HPM_P2
2021/08/05 00:00:04;;;;;;;16.26;8.35;;;;;;;;;;339626;156;857320;-65
2021/08/05 00:01:06;;;;;;;11.19;8.03;;;;;;;;;;338648;156;866755;-65
2021/08/05 00:02:08;;;;;;;13.43;8.09;;;;;;;;;;344755;155;859523;-64
2021/08/05 00:03:09;;;;;;;10.06;7.87;;;;;;;;;;343846;154;857200;-65
2021/08/05 00:04:11;;;;;;;14.46;8.18;;;;;;;;;;340420;154;864883;-65
2021/08/05 00:05:13;;;;;;;13.63;8.48;;;;;;;;;;344522;154;857758;-65
2021/08/05 00:06:16;;;;;;;11.21;7.80;;;;;;;;;;342004;155;857353;-65
2021/08/05 00:07:17;;;;;;;11.59;8.81;;;;;;;;;;337196;157;857227;-65
2021/08/05 00:08:19;;;;;;;12.09;8.43;;;;;;;;;;343979;155;858905;-65
2021/08/05 00:09:20;;;;;;;16.03;8.35;;;;;;;;;;340061;155;858236;-65
2021/08/05 00:10:22;;;;;;;8.65;6.91;;;;;;;;;;336434;157;857253;-65
2021/08/05 00:11:24;;;;;;;12.29;8.66;;;;;;;;;;345007;154;857314;-65
2021/08/05 00:12:26;;;;;;;12.91;8.20;;;;;;;;;;347590;154;857287;-65
2021/08/05 00:13:28;;;;;;;11.11;8.05;;;;;;;;;;342795;155;857261;-65
2021/08/05 00:14:30;;;;;;;11.30;8.35;;;;;;;;;;344493;154;857325;-65
2021/08/05 00:15:31;;;;;;;12.22;8.80;;;;;;;;;;344824;156;857395;-65
2021/08/05 00:16:33;;;;;;;13.70;8.09;;;;;;;;;;343893;153;857270;-65
2021/08/05 00:17:35;;;;;;;11.24;8.26;;;;;;;;;;344223;154;859188;-65
2021/08/05 00:18:37;;;;;;;15.21;8.69;;;;;;;;;;343353;154;857975;-65
2021/08/05 00:19:39;;;;;;;13.02;8.19;;;;;;;;;;345319;155;866427;-65
2021/08/05 00:20:41;;;;;;;12.29;8.03;;;;;;;;;;341775;155;857465;-65
2021/08/05 00:21:43;;;;;;;15.68;9.29;;;;;;;;;;344286;154;860976;-65
2021/08/05 00:22:44;;;;;;;10.95;9.01;;;;;;;;;;344732;154;858985;-65
2021/08/05 00:23:46;;;;;;;12.08;8.61;;;;;;;;;;340265;156;857782;-65
2021/08/05 00:24:47;;;;;;;11.97;8.29;;;;;;;;;;340635;156;857251;-65
2021/08/05 00:25:49;;;;;;;19.04;9.18;;;;;;;;;;339129;155;864937;-65
2021/08/05 00:26:51;;;;;;;11.51;8.41;;;;;;;;;;341888;156;858883;-65
2021/08/05 00:27:53;;;;;;;12.19;8.84;;;;;;;;;;337809;156;857456;-65
2021/08/05 00:28:54;;;;;;;11.89;8.45;;;;;;;;;;340385;156;857116;-65
2021/08/05 00:29:56;;;;;;;13.66;7.95;;;;;;;;;;336066;159;858984;-65
2021/08/05 00:30:57;;;;;;;14.43;8.34;;;;;;;;;;341108;155;858948;-65
2021/08/05 00:31:59;;;;;;;16.82;9.48;;;;;;;;;;341340;155;865165;-65
2021/08/05 00:33:01;;;;;;;12.37;8.11;;;;;;;;;;342873;154;857886;-65
2021/08/05 00:34:02;;;;;;;11.57;9.09;;;;;;;;;;344254;156;866707;-64
2021/08/05 00:35:07;;;;;;;10.65;8.78;;;;;;;;;;342758;156;867217;-65
2021/08/05 00:36:10;;;;;;;13.47;8.34;;;;;;;;;;339551;154;858997;-65
2021/08/05 00:37:11;;;;;;;12.54;8.02;;;;;;;;;;339450;156;857377;-65
2021/08/05 00:38:13;;;;;;;13.22;8.69;;;;;;;;;;342695;156;864994;-65
2021/08/05 00:39:15;;;;;;;12.47;8.85;;;;;;;;;;342280;155;866743;-65
2021/08/05 00:40:17;;;;;;;12.24;8.28;;;;;;;;;;338636;155;857310;-65
2021/08/05 00:41:19;;;;;;;11.20;8.31;;;;;;;;;;339529;156;866719;-65
2021/08/05 00:42:20;;;;;;;11.75;8.15;;;;;;;;;;336966;156;859062;-65
2021/08/05 00:43:22;;;;;;;11.04;8.15;;;;;;;;;;339940;156;857330;-65
2021/08/05 00:44:23;;;;;;;10.81;6.86;;;;;;;;;;343896;155;857388;-65
2021/08/05 00:45:25;;;;;;;13.03;8.14;;;;;;;;;;344633;155;857308;-66
2021/08/05 00:46:27;;;;;;;12.11;7.85;;;;;;;;;;344499;154;865481;-64
2021/08/05 00:47:29;;;;;;;12.82;8.94;;;;;;;;;;344962;154;857312;-65
2021/08/05 00:48:31;;;;;;;12.64;8.33;;;;;;;;;;344582;154;859660;-65
2021/08/05 00:49:32;;;;;;;12.39;8.04;;;;;;;;;;342089;154;858866;-65
2021/08/05 00:50:34;;;;;;;11.62;8.29;;;;;;;;;;343149;154;859301;-64
2021/08/05 00:51:36;;;;;;;11.90;8.39;;;;;;;;;;336577;157;860364;-65
2021/08/05 00:52:37;;;;;;;12.34;8.66;;;;;;;;;;347600;153;859063;-65
2021/08/05 00:53:42;;;;;;;11.31;7.82;;;;;;;;;;344912;153;859181;-65
2021/08/05 00:54:42;;;;;;;10.64;8.16;;;;;;;;;;343662;154;859502;-65
2021/08/05 00:55:44;;;;;;;14.65;8.55;;;;;;;;;;348542;150;857419;-65
2021/08/05 00:56:46;;;;;;;10.40;7.63;;;;;;;;;;348281;150;859842;-63
2021/08/05 00:57:48;;;;;;;10.34;7.81;;;;;;;;;;350350;150;857903;-65
2021/08/05 00:58:50;;;;;;;12.37;7.96;;;;;;;;;;351930;153;857218;-65
2021/08/05 00:59:51;;;;;;;10.53;7.95;;;;;;;;;;355645;150;867105;-65
2021/08/05 01:00:55;;;;;;;10.59;8.35;;;;;;;;;;351302;150;857235;-64
2021/08/05 01:01:58;;;;;;;10.98;8.64;;;;;;;;;;350452;150;857263;-65
2021/08/05 01:03:04;;;;;;;14.34;8.52;;;;;;;;;;352267;150;858363;-65
2021/08/05 01:04:08;;;;;;;11.32;8.45;;;;;;;;;;350232;150;857269;-65
2021/08/05 01:05:09;;;;;;;13.39;8.06;;;;;;;;;;349522;150;859010;-65
2021/08/05 01:06:17;;;;;;;11.55;8.37;;;;;;;;;;351097;151;858575;-65
2021/08/05 01:07:23;;;;;;;11.32;8.25;;;;;;;;;;349586;150;866738;-65
2021/08/05 01:08:25;;;;;;;12.49;8.16;;;;;;;;;;351069;150;857807;-64
2021/08/05 01:09:37;;;;;;;10.84;7.78;;;;;;;;;;350308;150;857269;-64
2021/08/05 01:10:47;;;;;;;10.65;8.08;;;;;;;;;;350718;153;865862;-64
2021/08/05 01:11:56;;;;;;;12.40;8.28;;;;;;;;;;351280;150;857210;-64
2021/08/05 01:13:17;;;;;;;15.62;8.27;;;;;;;;;;346169;153;858799;-65
2021/08/05 01:14:18;;;;;;;;;;;;;;;;;;354360;150;858375;-65
2021/08/05 01:15:20;;;;;;;14.01;8.43;;;;;;;;;;350166;152;857283;-63
2021/08/05 01:16:24;;;;;;;11.29;8.45;;;;;;;;;;350286;152;857302;-64
2021/08/05 01:17:25;;;;;;;12.01;8.84;;;;;;;;;;349595;150;858970;-65
2021/08/05 01:18:29;;;;;;;13.18;7.66;;;;;;;;;;348769;153;857265;-63
2021/08/05 01:19:32;;;;;;;10.32;8.24;;;;;;;;;;349721;150;857781;-64
2021/08/05 01:20:34;;;;;;;13.26;8.61;;;;;;;;;;353033;150;857103;-64
2021/08/05 01:21:38;;;;;;;11.83;8.46;;;;;;;;;;350450;150;857870;-64
2021/08/05 01:22:41;;;;;;;13.09;8.58;;;;;;;;;;349776;150;865325;-65
2021/08/05 01:23:45;;;;;;;13.99;8.95;;;;;;;;;;349510;150;857285;-65
2021/08/05 01:24:48;;;;;;;11.89;8.52;;;;;;;;;;350112;150;857938;-64
2021/08/05 01:25:51;;;;;;;14.99;8.62;;;;;;;;;;351417;153;857330;-64
2021/08/05 01:26:55;;;;;;;11.27;8.26;;;;;;;;;;342882;155;858654;-64
2021/08/05 01:27:56;;;;;;;17.21;8.96;;;;;;;;;;340203;158;864976;-64
2021/08/05 01:28:58;;;;;;;15.48;8.47;;;;;;;;;;338579;159;857181;-64
2021/08/05 01:30:00;;;;;;;11.33;7.96;;;;;;;;;;342822;155;864975;-64
2021/08/05 01:31:02;;;;;;;15.03;9.05;;;;;;;;;;339046;156;857344;-63
2021/08/05 01:32:04;;;;;;;11.25;7.76;;;;;;;;;;334342;159;857295;-64
2021/08/05 01:33:06;;;;;;;11.87;8.13;;;;;;;;;;340186;156;857760;-64
2021/08/05 01:34:09;;;;;;;12.06;8.91;;;;;;;;;;343385;155;858791;-64
2021/08/05 01:35:11;;;;;;;9.33;7.84;;;;;;;;;;344851;153;857312;-64
2021/08/05 01:36:13;;;;;;;12.00;7.76;;;;;;;;;;340339;156;858191;-64
2021/08/05 01:37:14;;;;;;;11.89;8.00;;;;;;;;;;337227;158;859922;-64
2021/08/05 01:38:16;;;;;;;10.29;7.81;;;;;;;;;;341383;154;857322;-64
2021/08/05 01:39:17;;;;;;;13.41;8.43;;;;;;;;;;343641;154;857170;-64
2021/08/05 01:40:20;;;;;;;12.07;7.94;;;;;;;;;;345655;154;857360;-64
2021/08/05 01:41:21;;;;;;;10.85;8.38;;;;;;;;;;342008;154;857406;-64
2021/08/05 01:42:23;;;;;;;12.49;8.75;;;;;;;;;;341151;155;857376;-64
2021/08/05 01:43:24;;;;;;;12.39;7.59;;;;;;;;;;339976;155;859021;-65
2021/08/05 01:44:26;;;;;;;11.01;8.03;;;;;;;;;;340849;155;858998;-64
2021/08/05 01:45:27;;;;;;;13.89;8.30;;;;;;;;;;341742;155;859789;-64
2021/08/05 01:46:29;;;;;;;11.30;7.75;;;;;;;;;;341807;157;857181;-64
2021/08/05 01:47:31;;;;;;;16.31;8.77;;;;;;;;;;340011;156;857214;-64
2021/08/05 01:48:33;;;;;;;12.89;7.86;;;;;;;;;;335256;158;857335;-64
2021/08/05 01:49:34;;;;;;;13.33;8.53;;;;;;;;;;340040;155;857453;-64
2021/08/05 01:50:37;;;;;;;11.73;8.63;;;;;;;;;;338444;155;857400;-64
2021/08/05 01:51:39;;;;;;;12.93;7.11;;;;;;;;;;340586;155;865104;-64
2021/08/05 01:52:41;;;;;;;11.67;7.79;;;;;;;;;;339793;155;865075;-64
2021/08/05 01:53:42;;;;;;;14.07;8.53;;;;;;;;;;343432;155;857322;-64
2021/08/05 01:54:44;;;;;;;12.41;8.02;;;;;;;;;;342887;155;857372;-64
2021/08/05 01:55:46;;;;;;;12.73;7.93;;;;;;;;;;340696;156;857147;-64
2021/08/05 01:56:49;;;;;;;12.26;7.63;;;;;;;;;;335944;160;857083;-64
2021/08/05 01:57:57;;;;;;;12.11;8.44;;;;;;;;;;334071;160;860395;-64
2021/08/05 01:58:59;;;;;;;15.54;8.78;;;;;;;;;;340335;155;865043;-64
2021/08/05 01:59:58;;;;;;;11.48;8.21;;;;;;;;;;339532;155;857994;-64
2021/08/05 02:01:00;;;;;;;11.84;8.67;;;;;;;;;;339000;155;857933;-64
2021/08/05 02:02:02;;;;;;;10.93;7.67;;;;;;;;;;343096;155;857522;-63
2021/08/05 02:03:04;;;;;;;11.67;7.96;;;;;;;;;;340191;155;857367;-64
2021/08/05 02:04:17;;;;;;;14.03;8.31;;;;;;;;;;331505;160;857303;-64
2021/08/05 02:05:20;;;;;;;15.49;8.02;;;;;;;;;;334693;160;865220;-64
2021/08/05 02:06:22;;;;;;;14.29;7.84;;;;;;;;;;336019;158;857295;-64
2021/08/05 02:07:25;;;;;;;15.19;8.14;;;;;;;;;;333347;158;857261;-64
2021/08/05 02:08:28;;;;;;;13.37;8.56;;;;;;;;;;335925;158;867145;-64
2021/08/05 02:09:32;;;;;;;10.31;7.84;;;;;;;;;;334373;158;864866;-64
2021/08/05 02:10:36;;;;;;;11.15;7.46;;;;;;;;;;335398;158;858870;-64
2021/08/05 02:11:39;;;;;;;9.53;7.35;;;;;;;;;;338413;157;859221;-64
2021/08/05 02:12:43;;;;;;;11.46;7.97;;;;;;;;;;335842;160;857499;-63
2021/08/05 02:13:45;;;;;;;10.85;8.24;;;;;;;;;;335361;159;865605;-63
2021/08/05 02:14:46;;;;;;;11.31;7.57;;;;;;;;;;336179;160;857326;-63
2021/08/05 02:15:49;;;;;;;13.96;7.21;;;;;;;;;;338487;158;859595;-64
2021/08/05 02:16:51;;;;;;;8.99;7.37;;;;;;;;;;335502;159;865348;-64
2021/08/05 02:17:53;;;;;;;9.79;7.75;;;;;;;;;;336368;158;865677;-63
2021/08/05 02:18:55;;;;;;;11.54;7.26;;;;;;;;;;335945;160;864942;-64
2021/08/05 02:19:56;;;;;;;9.99;7.19;;;;;;;;;;336367;158;857374;-63
2021/08/05 02:20:58;;;;;;;9.31;7.69;;;;;;;;;;335590;159;864931;-64
2021/08/05 02:22:00;;;;;;;13.16;8.20;;;;;;;;;;335328;158;864999;-64
2021/08/05 02:23:01;;;;;;;11.27;8.15;;;;;;;;;;335636;158;864993;-64
2021/08/05 02:24:03;;;;;;;10.29;7.57;;;;;;;;;;335020;158;857319;-64
2021/08/05 02:25:05;;;;;;;11.17;8.25;;;;;;;;;;334766;158;857711;-64
2021/08/05 02:26:08;;;;;;;13.97;7.91;;;;;;;;;;336283;158;860299;-64
2021/08/05 02:27:09;;;;;;;8.67;6.74;;;;;;;;;;334172;158;858238;-64
2021/08/05 02:28:11;;;;;;;8.35;6.73;;;;;;;;;;335840;158;858893;-64
2021/08/05 02:29:12;;;;;;;10.90;7.13;;;;;;;;;;336880;158;859556;-64
2021/08/05 02:30:15;;;;;;;14.23;9.34;;;;;;;;;;334765;158;865442;-64
2021/08/05 02:31:17;;;;;;;12.92;6.94;;;;;;;;;;339057;155;858786;-64
2021/08/05 02:32:19;;;;;;;10.22;7.50;;;;;;;;;;338976;155;857299;-64
2021/08/05 02:33:21;;;;;;;10.24;7.56;;;;;;;;;;343070;155;857345;-64
2021/08/05 02:34:23;;;;;;;9.04;7.56;;;;;;;;;;334203;159;865674;-64
2021/08/05 02:35:24;;;;;;;9.95;7.59;;;;;;;;;;340884;156;858738;-64
2021/08/05 02:36:27;;;;;;;11.69;7.81;;;;;;;;;;335434;160;857464;-64
2021/08/05 02:37:28;;;;;;;12.31;7.22;;;;;;;;;;334541;160;858926;-64
2021/08/05 02:38:30;;;;;;;9.69;7.56;;;;;;;;;;334254;157;858697;-65
2021/08/05 02:39:32;;;;;;;9.11;6.58;;;;;;;;;;335551;158;859631;-64
2021/08/05 02:40:33;;;;;;;8.05;7.20;;;;;;;;;;331527;161;858775;-64
2021/08/05 02:41:35;;;;;;;19.21;7.94;;;;;;;;;;329077;160;858727;-64
2021/08/05 02:42:36;;;;;;;17.19;7.28;;;;;;;;;;330585;160;858099;-64
2021/08/05 02:43:38;;;;;;;14.60;7.27;;;;;;;;;;332933;161;857376;-64
2021/08/05 02:44:39;;;;;;;12.48;7.24;;;;;;;;;;332907;161;857385;-64
2021/08/05 02:45:41;;;;;;;9.36;6.96;;;;;;;;;;332533;160;857396;-64
2021/08/05 02:46:43;;;;;;;11.77;7.75;;;;;;;;;;336781;157;857392;-65
2021/08/05 02:47:45;;;;;;;9.91;7.28;;;;;;;;;;337265;159;859417;-64
2021/08/05 02:48:46;;;;;;;8.69;6.96;;;;;;;;;;337999;158;858247;-65
2021/08/05 02:49:49;;;;;;;11.13;7.34;;;;;;;;;;337890;158;857496;-65
2021/08/05 02:50:53;;;;;;;13.20;7.05;;;;;;;;;;338886;159;859321;-65
2021/08/05 02:51:54;;;;;;;9.04;7.53;;;;;;;;;;334675;159;865857;-65
2021/08/05 02:52:56;;;;;;;10.99;7.69;;;;;;;;;;338373;158;857379;-65
2021/08/05 02:53:57;;;;;;;10.36;7.43;;;;;;;;;;336182;157;857156;-65
2021/08/05 02:54:59;;;;;;;11.70;7.18;;;;;;;;;;332699;161;859083;-65
2021/08/05 02:56:01;;;;;;;10.26;6.83;;;;;;;;;;335661;159;858282;-65
2021/08/05 02:57:03;;;;;;;8.49;6.76;;;;;;;;;;336666;157;859101;-65
2021/08/05 02:58:04;;;;;;;9.75;7.20;;;;;;;;;;331982;162;859483;-65
2021/08/05 02:59:06;;;;;;;8.64;6.94;;;;;;;18.38;100.00;151230.28;330351;162;859796;-65
2021/08/05 03:00:09;;;;;;;8.47;5.58;;;;;;;;;;335892;158;858509;-65
2021/08/05 03:01:10;;;;;;;9.08;6.28;;;;;;;;;;337118;157;857485;-65
2021/08/05 03:02:15;;;;;;;7.31;5.86;;;;;;;;;;337361;156;857315;-65
2021/08/05 03:03:22;;;;;;;12.01;6.85;;;;;;;;;;337591;159;857540;-64
2021/08/05 03:04:25;;;;;;;9.05;6.86;;;;;;;;;;335946;157;857227;-65
2021/08/05 03:05:27;;;;;;;8.75;6.56;;;;;;;;;;335929;158;856288;-65
2021/08/05 03:06:30;;;;;;;13.22;6.74;;;;;;;;;;338388;158;858132;-64
2021/08/05 03:07:32;;;;;;;12.11;7.20;;;;;;;;;;337389;156;859407;-65
2021/08/05 03:08:38;;;;;;;11.54;6.86;;;;;;;;;;340631;158;857448;-65
2021/08/05 03:09:40;;;;;;;10.24;6.53;;;;;;;;;;337682;158;858491;-65
2021/08/05 03:12:00;;;;;;;10.48;6.83;;;;;;;18.96;67.01;99620.87;373102;141;882006;-66
2021/08/05 03:13:02;;;;;;;9.71;7.01;;;;;;;18.86;67.12;99624.86;364546;147;857402;-64
2021/08/05 03:14:03;;;;;;;14.99;7.12;;;;;;;18.86;67.46;99624.00;363543;147;864934;-65
2021/08/05 03:15:06;;;;;;;9.31;6.58;;;;;;;18.84;67.36;99621.47;364321;146;864988;-64
2021/08/05 03:16:08;;;;;;;12.64;7.36;;;;;;;18.83;67.57;99620.59;365896;145;864893;-65
2021/08/05 03:17:10;;;;;;;12.03;6.86;;;;;;;18.84;67.51;99619.67;364458;147;857182;-63
2021/08/05 03:18:12;;;;;;;9.89;6.68;;;;;;;18.86;67.56;99629.24;365250;145;865038;-63
2021/08/05 03:19:14;;;;;;;16.03;7.35;;;;;;;18.86;67.56;99629.24;365590;146;857221;-62
2021/08/05 03:20:17;;;;;;;14.45;6.93;;;;;;;18.88;67.72;99620.39;358814;147;864912;-63
2021/08/05 03:21:18;;;;;;;9.95;7.13;;;;;;;18.91;67.85;99622.00;356675;147;857768;-64
2021/08/05 03:22:20;;;;;;;10.16;6.66;;;;;;;18.93;67.97;99621.02;355550;147;857432;-64
2021/08/05 03:23:22;;;;;;;9.16;6.84;;;;;;;18.94;68.04;99625.34;356981;150;865460;-62
2021/08/05 03:24:24;;;;;;;8.45;6.96;;;;;;;18.97;68.20;99627.85;359918;147;867074;-62
2021/08/05 03:25:26;;;;;;;9.88;6.64;;;;;;;18.99;68.03;99625.14;356046;147;864988;-64
2021/08/05 03:26:29;;;;;;;11.64;7.44;;;;;;;;;;356717;149;865000;-65
2021/08/05 03:27:31;;;;;;;9.20;6.76;;;;;;;;;;354007;148;858590;-65
2021/08/05 03:28:32;;;;;;;7.87;6.76;;;;;;;;;;355123;149;857247;-65
2021/08/05 03:29:34;;;;;;;10.24;6.81;;;;;;;;;;355742;147;857501;-65
2021/08/05 03:30:38;;;;;;;8.04;6.53;;;;;;;;;;355043;150;857313;-64
2021/08/05 03:31:39;;;;;;;8.89;6.83;;;;;;;;;;357932;150;865283;-64
2021/08/05 03:32:41;;;;;;;8.75;6.90;;;;;;;;;;356188;148;856610;-65
2021/08/05 03:33:43;;;;;;;9.74;6.81;;;;;;;;;;358014;149;858268;-64
2021/08/05 03:34:44;;;;;;;8.34;6.63;;;;;;;;;;354939;150;864923;-64
2021/08/05 03:35:46;;;;;;;9.60;6.98;;;;;;;;;;356072;147;865009;-65
2021/08/05 03:36:48;;;;;;;9.28;6.89;;;;;;;;;;356999;147;857206;-65
2021/08/05 03:37:49;;;;;;;9.27;5.94;;;;;;;;;;358515;150;864952;-66
2021/08/05 03:38:52;;;;;;;12.46;6.21;;;;;;;;;;349245;153;864899;-66
2021/08/05 03:39:53;;;;;;;10.51;6.51;;;;;;;;;;350251;150;857293;-65
2021/08/05 03:40:55;;;;;;;7.72;6.45;;;;;;;;;;358382;147;864949;-65
2021/08/05 03:41:57;;;;;;;9.25;6.78;;;;;;;;;;358357;147;865087;-65
2021/08/05 03:42:58;;;;;;;10.66;6.78;;;;;;;;;;356147;147;865040;-65
2021/08/05 03:44:00;;;;;;;9.00;6.47;;;;;;;;;;355149;147;857404;-65
2021/08/05 03:45:01;;;;;;;9.24;6.84;;;;;;;;;;355138;150;857919;-66
2021/08/05 03:46:03;;;;;;;9.14;6.95;;;;;;;;;;355489;147;857843;-65
2021/08/05 03:47:05;;;;;;;10.71;6.89;;;;;;;;;;354973;149;864940;-65
2021/08/05 03:48:07;;;;;;;9.81;6.89;;;;;;;;;;359103;147;857259;-65
2021/08/05 03:49:08;;;;;;;7.55;6.54;;;;;;;;;;353697;150;857247;-66
2021/08/05 03:50:10;;;;;;;8.10;6.35;;;;;;;;;;357639;147;859071;-66
2021/08/05 03:51:12;;;;;;;10.32;7.04;;;;;;;;;;356308;147;858843;-65
2021/08/05 03:52:14;;;;;;;10.89;6.57;;;;;;;;;;352810;150;866431;-66
2021/08/05 03:53:15;;;;;;;11.28;7.01;;;;;;;;;;356835;147;858689;-65
2021/08/05 03:54:17;;;;;;;8.48;6.49;;;;;;;;;;355361;148;859211;-64
2021/08/05 03:55:18;;;;;;;11.34;7.03;;;;;;;;;;358528;149;859135;-66
2021/08/05 03:56:21;;;;;;;11.74;7.15;;;;;;;;;;356425;149;858958;-64
2021/08/05 03:57:22;;;;;;;11.04;7.22;;;;;;;;;;354566;147;857721;-64
2021/08/05 03:58:24;;;;;;;8.69;7.36;;;;;;;;;;355158;147;865020;-66
2021/08/05 03:59:25;;;;;;;9.29;7.18;;;;;;;;;;358599;149;857216;-64
2021/08/05 04:00:27;;;;;;;10.76;7.37;;;;;;;;;;356878;147;857381;-67
2021/08/05 04:01:29;;;;;;;9.98;7.81;;;;;;;;;;355587;148;857234;-67
2021/08/05 04:02:31;;;;;;;10.13;8.27;;;;;;;;;;358817;148;864920;-69
2021/08/05 04:03:32;;;;;;;17.18;7.47;;;;;;;;;;360507;148;860488;-65
2021/08/05 04:04:34;;;;;;;9.99;8.29;;;;;;;;;;356861;147;858675;-68
2021/08/05 04:05:35;;;;;;;10.27;7.86;;;;;;;;;;356485;147;857323;-67
2021/08/05 04:06:38;;;;;;;9.35;7.52;;;;;;;;;;357464;147;857319;-68
2021/08/05 04:07:39;;;;;;;11.50;7.96;;;;;;;;;;357903;147;857316;-68
2021/08/05 04:08:41;;;;;;;14.00;7.74;;;;;;;;;;357070;147;856493;-64
2021/08/05 04:09:42;;;;;;;11.71;7.59;;;;;;;;;;356343;149;865028;-65
2021/08/05 04:10:44;;;;;;;12.53;7.57;;;;;;;;;;355244;147;857430;-69
2021/08/05 04:11:46;;;;;;;16.97;7.76;;;;;;;;;;353876;147;857199;-69
2021/08/05 04:12:47;;;;;;;9.65;7.40;;;;;;;;;;355807;148;857384;-65
2021/08/05 04:13:49;;;;;;;12.29;7.66;;;;;;;;;;357136;150;858100;-64
2021/08/05 04:14:51;;;;;;;12.35;7.37;;;;;;;;;;351334;148;859540;-65
2021/08/05 04:15:52;;;;;;;8.99;7.06;;;;;;;;;;352063;149;857938;-63
2021/08/05 04:16:55;;;;;;;10.90;7.30;;;;;;;;;;355131;149;857887;-66
2021/08/05 04:17:57;;;;;;;11.40;7.86;;;;;;;;;;355416;151;857831;-64
2021/08/05 04:18:59;;;;;;;11.70;7.71;;;;;;;;;;355289;149;857469;-66
2021/08/05 04:20:00;;;;;;;9.76;7.56;;;;;;;;;;353094;149;857852;-64
2021/08/05 04:21:02;;;;;;;10.89;7.81;;;;;;;;;;352924;149;857325;-64
2021/08/05 04:22:03;;;;;;;10.96;7.89;;;;;;;;;;352897;151;865390;-66
2021/08/05 04:23:05;;;;;;;10.40;7.36;;;;;;;;;;353255;149;858975;-66
2021/08/05 04:24:07;;;;;;;10.81;7.90;;;;;;;;;;352627;149;857482;-64
2021/08/05 04:25:09;;;;;;;10.65;7.68;;;;;;;;;;355571;150;860456;-65
2021/08/05 04:26:12;;;;;;;11.98;8.14;;;;;;;;;;355212;150;858960;-65
2021/08/05 04:27:14;;;;;;;11.81;7.24;;;;;;;;;;352873;148;859688;-64
2021/08/05 04:28:15;;;;;;;11.63;8.21;;;;;;;;;;357980;149;857367;-63
2021/08/05 04:29:17;;;;;;;12.06;7.94;;;;;;;;;;352668;148;857301;-64
2021/08/05 04:30:21;;;;;;;11.39;7.69;;;;;;;;;;353482;150;865046;-66
2021/08/05 04:31:23;;;;;;;13.30;7.90;;;;;;;;;;352966;149;857282;-68
2021/08/05 04:32:24;;;;;;;14.02;8.37;;;;;;;;;;357176;148;858664;-67
2021/08/05 04:33:26;;;;;;;13.61;8.12;;;;;;;;;;352689;151;857286;-69
2021/08/05 04:34:27;;;;;;;10.31;8.00;;;;;;;;;;352011;151;858861;-68
2021/08/05 04:35:29;;;;;;;12.24;7.68;;;;;;;;;;354297;150;857191;-68
2021/08/05 04:36:31;;;;;;;12.68;7.89;;;;;;;;;;355959;150;857176;-69
2021/08/05 04:37:32;;;;;;;9.96;8.22;;;;;;;;;;354593;149;857332;-70
2021/08/05 04:38:34;;;;;;;15.49;9.12;;;;;;;;;;352131;148;865150;-64
2021/08/05 04:39:36;;;;;;;10.43;7.84;;;;;;;;;;355672;150;867252;-65
2021/08/05 04:40:39;;;;;;;12.86;8.63;;;;;;;;;;351255;150;859117;-65
2021/08/05 04:41:40;;;;;;;12.64;8.72;;;;;;;;;;352411;150;857370;-65
2021/08/05 04:42:42;;;;;;;11.21;8.44;;;;;;;;;;354767;150;857114;-66
2021/08/05 04:43:44;;;;;;;10.94;8.57;;;;;;;;;;352784;151;863678;-68
2021/08/05 04:44:45;;;;;;;11.57;8.38;;;;;;;;;;353188;149;857236;-68
2021/08/05 04:45:47;;;;;;;12.03;8.65;;;;;;;;;;353124;150;857358;-68
2021/08/05 04:46:50;;;;;;;10.93;8.81;;;;;;;;;;352261;151;866739;-68
2021/08/05 04:47:56;;;;;;;13.41;8.11;;;;;;;;;;354508;150;857270;-67
2021/08/05 04:48:59;;;;;;;10.52;8.22;;;;;;;;;;353305;150;857325;-67
2021/08/05 04:50:01;;;;;;;10.93;7.70;;;;;;;;;;355405;149;857412;-67
2021/08/05 04:51:03;;;;;;;9.89;7.79;;;;;;;;;;355257;151;857170;-67
2021/08/05 04:52:06;;;;;;;10.66;8.20;;;;;;;;;;354374;150;857820;-67
2021/08/05 04:53:09;;;;;;;10.44;7.61;;;;;;;;;;353900;150;859332;-65
2021/08/05 04:54:11;;;;;;;10.26;7.68;;;;;;;;;;352694;149;858537;-67
2021/08/05 04:55:12;;;;;;;11.64;8.16;;;;;;;;;;357135;150;858622;-67
2021/08/05 04:56:16;;;;;;;10.64;8.34;;;;;;;;;;352929;149;857355;-66
2021/08/05 04:57:17;;;;;;;11.14;8.34;;;;;;;;;;353992;149;857535;-67
2021/08/05 04:58:19;;;;;;;10.75;8.32;;;;;;;;;;350383;151;857171;-66
2021/08/05 04:59:20;;;;;;;10.87;8.39;;;;;;;;;;353905;150;857747;-67
2021/08/05 05:00:24;;;;;;;9.71;7.81;;;;;;;;;;351630;150;857208;-67
2021/08/05 05:01:25;;;;;;;10.69;8.26;;;;;;;;;;352668;151;857269;-66
2021/08/05 05:02:27;;;;;;;12.93;8.05;;;;;;;;;;353256;149;857727;-65
2021/08/05 05:03:29;;;;;;;16.59;8.06;;;;;;;;;;353785;148;857735;-65
2021/08/05 05:04:30;;;;;;;11.59;8.62;;;;;;;;;;354801;150;857247;-66
2021/08/05 05:05:32;;;;;;;11.34;7.57;;;;;;;;;;356534;151;858851;-65
2021/08/05 05:06:34;;;;;;;10.48;8.20;;;;;;;;;;354308;150;858619;-65
2021/08/05 05:07:36;;;;;;;12.09;7.83;;;;;;;;;;353466;149;859078;-65
2021/08/05 05:08:37;;;;;;;11.32;8.48;;;;;;;;;;354776;151;857351;-67
2021/08/05 05:09:39;;;;;;;11.09;7.84;;;;;;;;;;356024;149;857452;-67
2021/08/05 05:10:41;;;;;;;11.53;8.63;;;;;;;;;;352921;149;857340;-66
2021/08/05 05:11:43;;;;;;;13.88;8.27;;;;;;;;;;352455;150;857440;-66
2021/08/05 05:12:45;;;;;;;12.79;8.22;;;;;;;;;;352728;150;857263;-66
2021/08/05 05:13:46;;;;;;;11.31;8.68;;;;;;;;;;355804;149;858956;-64
2021/08/05 05:14:48;;;;;;;11.08;8.07;;;;;;;;;;353459;149;857337;-66
2021/08/05 05:15:50;;;;;;;14.15;8.57;;;;;;;;;;354236;148;859063;-67
2021/08/05 05:16:54;;;;;;;10.06;8.51;;;;;;;;;;354481;148;857773;-66
2021/08/05 05:17:55;;;;;;;14.63;9.35;;;;;;;;;;354973;149;857790;-68
2021/08/05 05:18:57;;;;;;;13.49;9.09;;;;;;;;;;355750;150;857404;-68
2021/08/05 05:19:59;;;;;;;14.14;8.73;;;;;;;;;;357925;150;867081;-65
2021/08/05 05:21:00;;;;;;;12.98;8.74;;;;;;;;;;354967;149;857425;-66
2021/08/05 05:22:03;;;;;;;10.93;8.86;;;;;;;;;;354685;150;864937;-66
2021/08/05 05:23:05;;;;;;;10.26;8.41;;;;;;;;;;352485;150;857367;-66
2021/08/05 05:24:06;;;;;;;11.47;8.81;;;;;;;;;;352473;148;857420;-66
2021/08/05 05:25:08;;;;;;;15.96;8.91;;;;;;;;;;354198;147;857177;-66
2021/08/05 05:26:10;;;;;;;17.77;8.73;;;;;;;;;;359051;147;857252;-67
2021/08/05 05:27:12;;;;;;;10.75;7.92;;;;;;;;;;361391;147;865691;-66
2021/08/05 05:28:14;;;;;;;11.85;8.78;;;;;;;;;;355563;147;857422;-66
2021/08/05 05:29:15;;;;;;;11.23;8.78;;;;;;;;;;355752;149;857254;-66
2021/08/05 05:30:18;;;;;;;14.09;8.38;;;;;;;;;;357216;150;857310;-66
2021/08/05 05:31:21;;;;;;;11.21;8.29;;;;;;;;;;355756;148;860032;-66
2021/08/05 05:32:23;;;;;;;13.60;8.69;;;;;;;;;;355128;149;857204;-66
2021/08/05 05:33:24;;;;;;;12.18;8.49;;;;;;;;;;352917;150;857236;-66
2021/08/05 05:34:26;;;;;;;16.38;9.11;;;;;;;;;;352698;150;857378;-65
2021/08/05 05:35:28;;;;;;;12.73;9.16;;;;;;;;;;354457;148;865045;-66
2021/08/05 05:36:30;;;;;;;12.81;8.93;;;;;;;;;;354018;147;857242;-67
2021/08/05 05:37:31;;;;;;;10.45;8.24;;;;;;;;;;353361;150;857264;-66
2021/08/05 05:38:33;;;;;;;11.29;8.50;;;;;;;;;;356757;150;857395;-64
2021/08/05 05:39:35;;;;;;;13.60;8.86;;;;;;;;;;355651;142;865479;-64
2021/08/05 05:40:37;;;;;;;13.47;9.11;;;;;;;;;;357116;148;865496;-64
2021/08/05 05:41:38;;;;;;;12.07;9.17;;;;;;;;;;349883;150;857320;-63
2021/08/05 05:42:40;;;;;;;12.05;9.12;;;;;;;;;;348253;151;865024;-65
2021/08/05 05:43:42;;;;;;;10.89;8.24;;;;;;;;;;354319;149;856600;-67
2021/08/05 05:44:43;;;;;;;12.94;8.39;;;;;;;;;;358907;149;857331;-64
2021/08/05 05:45:45;;;;;;;12.44;8.44;;;;;;;;;;355433;151;857389;-65
2021/08/05 05:47:52;;;;;;;12.10;8.81;;;;;;;;;;353988;152;857313;-65
2021/08/05 05:48:54;;;;;;;12.46;8.71;;;;;;;;;;355141;151;857314;-65
2021/08/05 05:49:55;;;;;;;12.28;8.99;;;;;;;;;;353254;151;857202;-66
2021/08/05 05:50:58;;;;;;;12.52;8.11;;;;;;;;;;354421;149;865723;-65
2021/08/05 05:51:59;;;;;;;12.59;8.74;;;;;;;;;;346722;152;859144;-64
2021/08/05 05:53:01;;;;;;;11.22;8.54;;;;;;;;;;354638;150;860727;-66
2021/08/05 05:54:02;;;;;;;11.32;8.47;;;;;;;;;;353473;151;857830;-66
2021/08/05 05:55:05;;;;;;;9.44;7.64;;;;;;;;;;347771;154;857337;-65
2021/08/05 05:56:07;;;;;;;11.70;8.36;;;;;;;;;;345481;153;857670;-66
2021/08/05 05:57:08;;;;;;;12.69;8.34;;;;;;;;;;351008;151;859026;-64
2021/08/05 05:58:10;;;;;;;10.96;8.21;;;;;;;;;;351396;153;857338;-64
2021/08/05 05:59:11;;;;;;;10.05;7.86;;;;;;;;;;349754;153;857358;-66
2021/08/05 06:00:14;;;;;;;11.25;8.45;;;;;;;;;;348974;153;857255;-68